createdAt,value
2017-09-11T14:57:32.225Z,974
2017-09-11T14:58:03.329Z,974
2017-09-11T14:59:03.617Z,974.1
2017-09-11T15:00:03.224Z,974
2017-09-11T15:01:03.261Z,974.1
2017-09-11T15:02:04.127Z,974.3
2017-09-11T15:06:43.549Z,974
2017-09-11T15:07:03.185Z,974
2017-09-11T15:07:40.092Z,974
2017-09-11T15:08:03.234Z,974
2017-09-11T15:09:03.173Z,974.1
2017-09-11T15:10:03.992Z,974.1
2017-09-11T15:11:03.132Z,974
2017-09-11T15:12:04.275Z,974.1
2017-09-11T15:13:35.579Z,974.1
2017-09-11T15:14:03.689Z,974.2
2017-09-11T15:15:03.999Z,974.1
2017-09-11T15:16:04.278Z,974.1
2017-09-11T15:17:03.648Z,974.1
2017-09-11T15:18:02.968Z,974.2
2017-09-11T15:19:03.958Z,974.2
2017-09-11T15:20:03.243Z,974.2
2017-09-11T15:21:03.512Z,974.2
2017-09-11T15:22:03.081Z,974.3
2017-09-11T15:23:03.355Z,974.3
2017-09-11T15:24:04.369Z,974.2
2017-09-11T15:25:03.719Z,974.2
2017-09-11T15:26:04.195Z,974.2
2017-09-11T15:27:03.548Z,974.3
2017-09-11T15:28:03.289Z,974.2
2017-09-11T15:29:03.877Z,974.3
2017-09-11T15:30:04.226Z,974.4
2017-09-11T15:31:03.145Z,974.4
2017-09-11T15:32:03.819Z,974.4
2017-09-11T15:33:03.269Z,974.4
2017-09-11T15:34:03.759Z,974.4
2017-09-11T15:35:03.485Z,974.5
2017-09-11T15:36:03.511Z,974.4
2017-09-11T15:37:03.112Z,974.4
2017-09-11T15:38:03.866Z,974.4
2017-09-11T15:39:04.131Z,974.4
2017-09-11T15:40:05.196Z,974.5
2017-09-11T15:41:03.319Z,974.4
2017-09-11T15:42:04.087Z,974.4
2017-09-11T15:43:08.247Z,974.4
2017-09-11T15:44:07.883Z,974.4
2017-09-11T15:45:03.768Z,974.3
2017-09-11T15:46:03.698Z,974.4
2017-09-11T15:47:04.365Z,974.4
2017-09-11T15:48:03.154Z,974.4
2017-09-11T15:49:03.682Z,974.5
2017-09-11T15:50:03.709Z,974.5
2017-09-11T15:51:03.852Z,974.5
2017-09-11T15:52:03.883Z,974.5
2017-09-11T15:53:04.338Z,974.6
2017-09-11T15:54:03.026Z,974.6
2017-09-11T15:55:02.883Z,974.6
2017-09-11T15:56:04.372Z,974.6
2017-09-11T15:57:03.834Z,974.6
2017-09-11T15:58:04.329Z,974.7
2017-09-11T15:59:03.928Z,974.7
2017-09-11T16:00:04.181Z,974.9
2017-09-11T16:01:02.788Z,974.7
2017-09-11T16:02:02.758Z,974.8
2017-09-11T16:03:07.584Z,974.9
2017-09-11T16:04:03.023Z,974.7
2017-09-11T16:05:02.589Z,974.7
2017-09-11T16:06:02.868Z,974.7
2017-09-11T16:07:03.138Z,974.8
2017-09-11T16:08:02.492Z,974.8
2017-09-11T16:09:02.683Z,974.7
2017-09-11T16:10:03.211Z,974.8
2017-09-11T16:13:02.850Z,974.7
2017-09-11T16:14:02.780Z,974.7
2017-09-11T16:15:02.649Z,974.7
2017-09-11T16:16:02.596Z,974.6
2017-09-11T16:17:03.775Z,974.6
2017-09-11T16:18:02.537Z,974.7
2017-09-11T16:19:03.189Z,974.6
2017-09-11T16:20:03.320Z,974.6
2017-09-11T16:21:03.044Z,974.6
2017-09-11T16:22:02.668Z,974.5
2017-09-11T16:23:03.629Z,974.5
2017-09-11T16:24:03.332Z,974.5
2017-09-11T16:25:04.199Z,974.4
2017-09-11T16:26:04.636Z,974.5
2017-09-11T16:27:06.563Z,974.5
2017-09-11T16:28:03.128Z,974.6
2017-09-11T16:29:04.390Z,974.4
2017-09-11T16:30:08.798Z,974.5
2017-09-11T16:31:03.720Z,974.4
